Time;durP1;ratioP1;P1;durP2;ratioP2;P2;SDS_P1;SDS_P2;PMS_P1;PMS_P2;Temp;Humidity;BMP_temperature;BMP_pressure;BME280_temperature;BME280_humidity;BME280_pressure;Samples;Min_cycle;Max_cycle;Signal;HPM_P1;HPM_P2
2021/03/30 00:00:31;;;;;;;;;;;;;;;;;;5030191;28;19919;-83
2021/03/30 00:02:56;;;;;;;;;;;;;;;;;;5051365;28;20045;-83
2021/03/30 00:05:21;;;;;;;;;;;;;;;;;;5067747;28;20290;-83
2021/03/30 00:07:47;;;;;;;;;;;;;;;;;;5034273;28;19952;-83
2021/03/30 00:10:17;;;;;;;;;;;;;;;;;;5051140;28;19916;-82
2021/03/30 00:12:45;;;;;;;;;;;;;;;;;;5050530;28;19909;-83
2021/03/30 00:15:14;;;;;;;;;;;;;;;;;;5032558;28;19978;-84
2021/03/30 00:17:40;;;;;;;;;;;;;;;;;;5030651;28;20027;-83
2021/03/30 00:20:09;;;;;;;;;;;;;;;;;;5019583;28;19923;-82
2021/03/30 00:22:34;;;;;;;;;;;;;;;;;;5034128;28;19917;-82
2021/03/30 00:25:00;;;;;;;;;;;;;;;;;;5017854;28;19909;-82
2021/03/30 00:27:25;;;;;;;;;;;;;;;;;;5017042;28;19952;-82
2021/03/30 00:29:50;;;;;;;;;;;;;;;;;;5034459;28;19908;-82
2021/03/30 00:32:16;;;;;;;;;;;;;;;;;;5017690;28;19915;-82
2021/03/30 00:34:41;;;;;;;;;;;;;;;;;;5017403;28;19920;-82
2021/03/30 00:37:06;;;;;;;;;;;;;;;;;;5016958;28;19920;-82
2021/03/30 00:39:32;;;;;;;;;;;;;;;;;;5050520;28;20003;-82
2021/03/30 00:41:58;;;;;;;;;;;;;;;;;;5033882;28;19963;-82
2021/03/30 00:44:23;;;;;;;;;;;;;;;;;;5050120;28;19948;-82
2021/03/30 00:46:49;;;;;;;;;;;;;;;;;;5033639;28;19959;-82
2021/03/30 00:49:14;;;;;;;;;;;;;;;;;;5034213;28;20279;-82
2021/03/30 00:51:40;;;;;;;;;;;;;;;;;;5050543;28;19908;-82
2021/03/30 00:54:05;;;;;;;;;;;;;;;;;;5033240;28;19917;-82
2021/03/30 00:56:30;;;;;;;;;;;;;;;;;;5016856;28;19925;-82
2021/03/30 00:58:56;;;;;;;;;;;;;;;;;;5017604;28;19908;-82
2021/03/30 01:01:21;;;;;;;;;;;;;;;;;;5017689;28;20420;-81
2021/03/30 01:03:47;;;;;;;;;;;;;;;;;;5033718;28;20421;-81
2021/03/30 01:06:12;;;;;;;;;;;;;;;;;;5050285;28;20007;-82
2021/03/30 01:08:44;;;;;;;;;;;;;;;;;;5050312;28;19920;-81
2021/03/30 01:11:09;;;;;;;;;;;;;;;;;;5045420;28;20545;-82
2021/03/30 01:13:42;;;;;;;;;;;;;;;;;;5032130;28;19996;-81
2021/03/30 01:16:07;;;;;;;;;;;;;;;;;;5013057;28;19917;-82
2021/03/30 01:18:35;;;;;;;;;;;;;;;;;;5031654;28;19920;-81
2021/03/30 01:21:00;;;;;;;;;;;;;;;;;;5013983;28;19999;-82
2021/03/30 01:23:44;;;;;;;;;;;;;;;;;;5042915;28;20003;-82
2021/03/30 01:26:24;;;;;;;;;;;;;;;;;;5053621;28;19912;-81
2021/03/30 01:28:50;;;;;;;;;;;;;;;;;;5054019;28;19917;-81
2021/03/30 01:31:15;;;;;;;;;;;;;;;;;;5054136;28;20003;-82
2021/03/30 01:33:40;;;;;;;;;;;;;;;;;;5037443;28;20073;-82
2021/03/30 01:36:06;;;;;;;;;;;;;;;;;;5020731;28;20423;-82
2021/03/30 01:38:31;;;;;;;;;;;;;;;;;;5036713;28;19919;-82
2021/03/30 01:40:56;;;;;;;;;;;;;;;;;;5020577;28;20317;-81
2021/03/30 01:43:22;;;;;;;;;;;;;;;;;;5020804;28;19908;-82
2021/03/30 01:45:51;;;;;;;;;;;;;;;;;;5020532;28;19917;-82
2021/03/30 01:48:17;;;;;;;;;;;;;;;;;;5053607;28;19939;-82
2021/03/30 01:50:42;;;;;;;;;;;;;;;;;;5052914;28;20268;-82
2021/03/30 01:53:07;;;;;;;;;;;;;;;;;;5033717;28;19921;-82
2021/03/30 01:55:33;;;;;;;;;;;;;;;;;;5033962;28;20059;-82
2021/03/30 01:57:59;;;;;;;;;;;;;;;;;;5029165;28;19921;-81
2021/03/30 02:00:27;;;;;;;;;;;;;;;;;;5053526;28;19935;-82
2021/03/30 02:02:53;;;;;;;;;;;;;;;;;;5053448;28;20371;-82
2021/03/30 02:05:20;;;;;;;;;;;;;;;;;;5053784;28;19913;-81
2021/03/30 02:07:45;;;;;;;;;;;;;;;;;;5032968;28;19912;-82
2021/03/30 02:10:20;;;;;;;;;;;;;;;;;;5016688;28;19916;-81
2021/03/30 02:12:45;;;;;;;;;;;;;;;;;;5053699;28;20374;-81
2021/03/30 02:15:11;;;;;;;;;;;;;;;;;;5055088;28;19920;-82
2021/03/30 02:17:52;;;;;;;;;;;;;;;;;;5024881;28;20334;-82
2021/03/30 02:20:20;;;;;;;;;;;;;;;;;;5016786;28;20015;-82
2021/03/30 02:22:45;;;;;;;;;;;;;;;;;;5019144;28;19924;-81
2021/03/30 02:25:10;;;;;;;;;;;;;;;;;;5054445;28;20290;-81
2021/03/30 02:27:38;;;;;;;;;;;;;;;;;;5032691;28;20374;-82
2021/03/30 02:30:03;;;;;;;;;;;;;;;;;;5033502;28;19919;-81
2021/03/30 02:32:29;;;;;;;;;;;;;;;;;;5016392;28;19996;-82
2021/03/30 02:34:54;;;;;;;;;;;;;;;;;;5019606;28;20321;-81
2021/03/30 02:37:20;;;;;;;;;;;;;;;;;;5068780;28;20003;-82
2021/03/30 02:39:45;;;;;;;;;;;;;;;;;;5052760;28;20362;-81
2021/03/30 02:42:10;;;;;;;;;;;;;;;;;;5052163;28;20418;-82
2021/03/30 02:44:35;;;;;;;;;;;;;;;;;;5053251;28;19912;-82
2021/03/30 02:47:01;;;;;;;;;;;;;;;;;;5051145;28;19913;-82
2021/03/30 02:49:26;;;;;;;;;;;;;;;;;;5016458;28;19991;-82
2021/03/30 02:51:52;;;;;;;;;;;;;;;;;;5016070;28;19960;-81
2021/03/30 02:54:17;;;;;;;;;;;;;;;;;;5031021;28;19916;-82
2021/03/30 02:56:42;;;;;;;;;;;;;;;;;;5017518;28;19913;-81
2021/03/30 02:59:08;;;;;;;;;;;;;;;;;;5036084;28;19916;-82
2021/03/30 03:01:33;;;;;;;;;;;;;;;;;;5068938;28;19916;-81
2021/03/30 03:03:59;;;;;;;;;;;;;;;;;;5052370;28;19991;-81
2021/03/30 03:06:25;;;;;;;;;;;;;;;;;;5051673;28;20317;-81
2021/03/30 03:08:51;;;;;;;;;;;;;;;;;;5035686;28;19916;-81
2021/03/30 03:11:16;;;;;;;;;;;;;;;;;;5051356;28;19940;-81
2021/03/30 03:13:42;;;;;;;;;;;;;;;;;;5035707;28;20800;-81
2021/03/30 03:16:07;;;;;;;;;;;;;;;;;;5018992;28;19917;-82
2021/03/30 03:18:33;;;;;;;;;;;;;;;;;;5018647;28;20329;-82
2021/03/30 03:20:58;;;;;;;;;;;;;;;;;;5034814;28;19913;-82
2021/03/30 03:23:24;;;;;;;;;;;;;;;;;;5034543;28;20378;-82
2021/03/30 03:25:49;;;;;;;;;;;;;;;;;;5018741;28;19916;-82
2021/03/30 03:28:14;;;;;;;;;;;;;;;;;;5018612;28;19963;-82
2021/03/30 03:30:40;;;;;;;;;;;;;;;;;;5034947;28;19913;-81
2021/03/30 03:33:09;;;;;;;;;;;;;;;;;;5019012;28;19916;-82
2021/03/30 03:35:34;;;;;;;;;;;;;;;;;;5018447;28;19915;-82
2021/03/30 03:38:01;;;;;;;;;;;;;;;;;;5051373;28;19912;-82
2021/03/30 03:40:27;;;;;;;;;;;;;;;;;;5051545;28;19908;-82
2021/03/30 03:42:52;;;;;;;;;;;;;;;;;;5031164;28;20353;-82
2021/03/30 03:45:17;;;;;;;;;;;;;;;;;;5031239;28;19924;-82
2021/03/30 03:47:43;;;;;;;;;;;;;;;;;;5035217;28;19913;-83
2021/03/30 03:50:08;;;;;;;;;;;;;;;;;;5050850;28;19913;-82
2021/03/30 03:52:35;;;;;;;;;;;;;;;;;;5032138;28;20390;-82
2021/03/30 03:55:00;;;;;;;;;;;;;;;;;;5049769;28;19997;-82
2021/03/30 03:57:31;;;;;;;;;;;;;;;;;;5034402;28;19962;-83
2021/03/30 03:59:58;;;;;;;;;;;;;;;;;;5051019;28;19912;-82
2021/03/30 04:02:24;;;;;;;;;;;;;;;;;;5034273;28;19995;-83
2021/03/30 04:04:50;;;;;;;;;;;;;;;;;;5034278;28;20016;-82
2021/03/30 04:07:19;;;;;;;;;;;;;;;;;;5034789;28;19908;-83
2021/03/30 04:09:48;;;;;;;;;;;;;;;;;;5034417;28;19909;-83
2021/03/30 04:12:13;;;;;;;;;;;;;;;;;;5051460;28;19935;-83
2021/03/30 04:14:39;;;;;;;;;;;;;;;;;;5040381;28;19932;-83
2021/03/30 04:17:04;;;;;;;;;;;;;;;;;;5031372;28;19909;-82
2021/03/30 04:19:29;;;;;;;;;;;;;;;;;;5014432;28;19930;-82
2021/03/30 04:21:55;;;;;;;;;;;;;;;;;;5031124;28;19917;-83
2021/03/30 04:24:21;;;;;;;;;;;;;;;;;;5023864;28;19905;-82
2021/03/30 04:26:46;;;;;;;;;;;;;;;;;;5033071;28;19959;-82
2021/03/30 04:29:11;;;;;;;;;;;;;;;;;;5034542;28;19958;-81
2021/03/30 04:31:37;;;;;;;;;;;;;;;;;;5033919;28;19966;-81
2021/03/30 04:34:02;;;;;;;;;;;;;;;;;;5033908;28;20389;-82
2021/03/30 04:36:28;;;;;;;;;;;;;;;;;;5017257;28;19916;-81
2021/03/30 04:38:53;;;;;;;;;;;;;;;;;;5050451;28;19995;-81
2021/03/30 04:41:18;;;;;;;;;;;;;;;;;;5051089;28;19947;-81
2021/03/30 04:43:44;;;;;;;;;;;;;;;;;;5050706;28;19908;-82
2021/03/30 04:46:09;;;;;;;;;;;;;;;;;;5050234;28;19916;-82
2021/03/30 04:48:35;;;;;;;;;;;;;;;;;;5050737;28;19959;-82
2021/03/30 04:51:00;;;;;;;;;;;;;;;;;;5034034;28;19913;-81
2021/03/30 04:53:25;;;;;;;;;;;;;;;;;;5045955;28;19917;-82
2021/03/30 04:55:51;;;;;;;;;;;;;;;;;;5015182;28;20282;-81
2021/03/30 04:58:16;;;;;;;;;;;;;;;;;;5033940;28;19913;-81
2021/03/30 05:00:41;;;;;;;;;;;;;;;;;;5021709;28;19913;-81
2021/03/30 05:03:06;;;;;;;;;;;;;;;;;;5054147;28;19913;-83
2021/03/30 05:05:32;;;;;;;;;;;;;;;;;;5038074;28;19916;-81
2021/03/30 05:07:57;;;;;;;;;;;;;;;;;;5021136;28;19928;-82
2021/03/30 05:10:22;;;;;;;;;;;;;;;;;;5054455;28;19912;-82
2021/03/30 05:12:48;;;;;;;;;;;;;;;;;;5054810;28;19912;-81
2021/03/30 05:15:13;;;;;;;;;;;;;;;;;;5035843;28;19909;-82
2021/03/30 05:17:38;;;;;;;;;;;;;;;;;;5037352;28;19912;-79
2021/03/30 05:20:04;;;;;;;;;;;;;;;;;;5054068;28;19916;-79
2021/03/30 05:22:30;;;;;;;;;;;;;;;;;;5037796;28;20293;-81
2021/03/30 05:24:55;;;;;;;;;;;;;;;;;;5053915;28;19909;-81
2021/03/30 05:27:20;;;;;;;;;;;;;;;;;;5017204;28;19919;-85
2021/03/30 05:29:45;;;;;;;;;;;;;;;;;;5034508;28;19909;-81
2021/03/30 05:32:14;;;;;;;;;;;;;;;;;;5020271;28;19920;-84
2021/03/30 05:34:40;;;;;;;;;;;;;;;;;;5021385;28;19916;-82
2021/03/30 05:37:06;;;;;;;;;;;;;;;;;;5017950;28;20039;-85
2021/03/30 05:39:33;;;;;;;;;;;;;;;;;;5017277;28;20267;-85
2021/03/30 05:42:06;;;;;;;;;;;;;;;;;;5046950;28;20481;-83
2021/03/30 05:44:34;;;;;;;;;;;;;;;;;;5069924;28;19948;-85
2021/03/30 05:49:57;;;;;;;;;;;;;;;;;;5015542;28;19916;-84
2021/03/30 05:52:30;;;;;;;;;;;;;;;;;;5050545;28;19928;-84
2021/03/30 05:54:57;;;;;;;;;;;;;;;;;;5051987;28;19916;-83
2021/03/30 05:57:25;;;;;;;;;;;;;;;;;;5020576;28;20286;-84
2021/03/30 05:59:53;;;;;;;;;;;;;;;;;;5020535;28;19908;-84
2021/03/30 06:02:20;;;;;;;;;;;;;;;;;;5036214;28;19924;-83
2021/03/30 06:04:47;;;;;;;;;;;;;;;;;;5036824;28;19923;-83
2021/03/30 06:07:13;;;;;;;;;;;;;;;;;;5053960;28;20001;-84
2021/03/30 06:09:42;;;;;;;;;;;;;;;;;;5026309;28;19952;-83
2021/03/30 06:12:09;;;;;;;;;;;;;;;;;;5033664;28;19924;-83
2021/03/30 06:14:45;;;;;;;;;;;;;;;;;;5035195;28;19935;-84
2021/03/30 06:17:13;;;;;;;;;;;;;;;;;;5037249;28;19920;-83
2021/03/30 06:19:52;;;;;;;;;;;;;;;;;;5052913;28;20010;-84
2021/03/30 06:22:18;;;;;;;;;;;;;;;;;;5049778;28;20076;-84
2021/03/30 06:24:43;;;;;;;;;;;;;;;;;;5033191;28;19919;-83
2021/03/30 06:27:09;;;;;;;;;;;;;;;;;;5019788;28;19912;-84
2021/03/30 06:29:35;;;;;;;;;;;;;;;;;;5052401;28;19908;-83
2021/03/30 06:32:04;;;;;;;;;;;;;;;;;;5051000;28;19923;-83
2021/03/30 06:34:29;;;;;;;;;;;;;;;;;;5019843;28;19912;-82
2021/03/30 06:36:55;;;;;;;;;;;;;;;;;;5029774;28;20256;-83
2021/03/30 06:39:37;;;;;;;;;;;;;;;;;;5019523;28;19935;-83
2021/03/30 06:42:09;;;;;;;;;;;;;;;;;;5019620;28;20333;-82
2021/03/30 06:44:35;;;;;;;;;;;;;;;;;;5036330;28;20021;-84
2021/03/30 06:47:14;;;;;;;;;;;;;;;;;;5036146;28;20397;-83
2021/03/30 06:49:56;;;;;;;;;;;;;;;;;;5027386;28;19916;-82
2021/03/30 06:52:25;;;;;;;;;;;;;;;;;;5036062;28;19917;-84
2021/03/30 06:54:59;;;;;;;;;;;;;;;;;;5032045;28;19915;-85
2021/03/30 06:57:53;;;;;;;;;;;;;;;;;;5029435;28;20371;-85
2021/03/30 07:00:32;;;;;;;;;;;;;;;;;;5032100;28;19924;-81
2021/03/30 07:03:05;;;;;;;;;;;;;;;;;;5035472;28;20389;-80
2021/03/30 07:05:42;;;;;;;;;;;;;;;;;;5052267;28;19952;-80
2021/03/30 07:08:08;;;;;;;;;;;;;;;;;;5052567;28;20432;-78
2021/03/30 07:10:34;;;;;;;;;;;;;;;;;;5068012;28;20362;-79
2021/03/30 07:13:00;;;;;;;;;;;;;;;;;;5017981;28;19924;-80
2021/03/30 07:15:25;;;;;;;;;;;;;;;;;;5046235;28;19923;-79
2021/03/30 07:18:11;;;;;;;;;;;;;;;;;;5035622;28;19920;-79
2021/03/30 07:20:37;;;;;;;;;;;;;;;;;;5049870;28;19912;-79
2021/03/30 07:23:04;;;;;;;;;;;;;;;;;;5051431;28;19920;-79
2021/03/30 07:25:29;;;;;;;;;;;;;;;;;;5014519;28;19913;-84
2021/03/30 07:28:03;;;;;;;;;;;;;;;;;;5011749;28;19962;-82
2021/03/30 07:30:28;;;;;;;;;;;;;;;;;;5048490;28;20358;-84
2021/03/30 07:32:58;;;;;;;;;;;;;;;;;;5035234;28;19909;-82
2021/03/30 07:35:25;;;;;;;;;;;;;;;;;;5035594;28;19913;-86
2021/03/30 07:37:56;;;;;;;;;;;;;;;;;;5052959;28;19912;-86
2021/03/30 07:40:21;;;;;;;;;;;;;;;;;;5069251;28;19955;-87
2021/03/30 07:42:48;;;;;;;;;;;;;;;;;;5035517;28;19908;-86
2021/03/30 07:45:18;;;;;;;;;;;;;;;;;;5013593;28;20007;-87
2021/03/30 07:47:47;;;;;;;;;;;;;;;;;;5034839;28;19972;-87
2021/03/30 07:50:14;;;;;;;;;;;;;;;;;;5016536;28;19920;-90
2021/03/30 07:52:45;;;;;;;;;;;;;;;;;;5016547;28;19913;-88
2021/03/30 07:55:15;;;;;;;;;;;;;;;;;;5016003;28;19920;-87
2021/03/30 07:58:01;;;;;;;;;;;;;;;;;;5015892;28;19909;-88
2021/03/30 08:00:34;;;;;;;;;;;;;;;;;;5016425;28;19909;-88
2021/03/30 08:03:04;;;;;;;;;;;;;;;;;;5031949;28;19936;-88
2021/03/30 08:05:33;;;;;;;;;;;;;;;;;;5052465;28;19913;-87
2021/03/30 08:08:01;;;;;;;;;;;;;;;;;;5019723;28;20425;-88
2021/03/30 08:10:28;;;;;;;;;;;;;;;;;;5019055;28;19913;-88
2021/03/30 08:13:12;;;;;;;;;;;;;;;;;;5019476;28;19913;-86
2021/03/30 08:15:42;;;;;;;;;;;;;;;;;;5052388;28;19908;-87
2021/03/30 08:18:09;;;;;;;;;;;;;;;;;;5035742;28;19908;-88
2021/03/30 08:20:50;;;;;;;;;;;;;;;;;;5035618;28;19913;-88
2021/03/30 08:23:18;;;;;;;;;;;;;;;;;;5052753;28;19959;-88
2021/03/30 08:25:47;;;;;;;;;;;;;;;;;;5035750;28;19912;-88
2021/03/30 08:28:48;;;;;;;;;;;;;;;;;;5052472;28;19913;-88
2021/03/30 08:31:17;;;;;;;;;;;;;;;;;;4994822;28;19909;-88
2021/03/30 08:33:42;;;;;;;;;;;;;;;;;;5008113;28;19970;-89
2021/03/30 08:36:21;;;;;;;;;;;;;;;;;;5035793;28;20362;-88
2021/03/30 08:38:48;;;;;;;;;;;;;;;;;;5035213;28;19919;-88
2021/03/30 08:41:33;;;;;;;;;;;;;;;;;;5035116;28;19916;-88
2021/03/30 08:44:13;;;;;;;;;;;;;;;;;;5052043;28;19970;-89
2021/03/30 08:46:40;;;;;;;;;;;;;;;;;;5035656;28;20038;-88
2021/03/30 08:49:26;;;;;;;;;;;;;;;;;;5035692;28;19974;-88
2021/03/30 08:51:52;;;;;;;;;;;;;;;;;;5051811;28;19947;-88
2021/03/30 08:54:20;;;;;;;;;;;;;;;;;;5034789;28;19944;-88
2021/03/30 08:56:46;;;;;;;;;;;;;;;;;;5035409;28;20007;-88
2021/03/30 08:59:11;;;;;;;;;;;;;;;;;;5051683;28;19971;-88
2021/03/30 09:01:37;;;;;;;;;;;;;;;;;;5018521;28;19908;-88
2021/03/30 09:04:03;;;;;;;;;;;;;;;;;;5034810;28;19908;-88
2021/03/30 09:06:33;;;;;;;;;;;;;;;;;;5034922;28;19958;-88
2021/03/30 09:09:00;;;;;;;;;;;;;;;;;;5034802;28;19913;-88
2021/03/30 09:11:27;;;;;;;;;;;;;;;;;;5035445;28;19909;-88
2021/03/30 09:14:03;;;;;;;;;;;;;;;;;;5031964;28;19909;-88
2021/03/30 09:16:28;;;;;;;;;;;;;;;;;;5031928;28;19974;-88
2021/03/30 09:19:14;;;;;;;;;;;;;;;;;;5032019;28;19917;-89
2021/03/30 09:21:43;;;;;;;;;;;;;;;;;;5031844;28;19931;-88
2021/03/30 09:24:20;;;;;;;;;;;;;;;;;;5031598;28;19913;-88
2021/03/30 09:26:48;;;;;;;;;;;;;;;;;;5031908;28;19916;-88
2021/03/30 09:29:17;;;;;;;;;;;;;;;;;;5031985;28;19913;-87
2021/03/30 09:31:45;;;;;;;;;;;;;;;;;;5031602;28;19913;-88
2021/03/30 09:34:11;;;;;;;;;;;;;;;;;;5015725;28;19913;-89
2021/03/30 09:36:43;;;;;;;;;;;;;;;;;;5015394;28;19916;-88
2021/03/30 09:39:10;;;;;;;;;;;;;;;;;;5014953;28;20027;-88
2021/03/30 09:41:39;;;;;;;;;;;;;;;;;;5015383;28;20347;-88
2021/03/30 09:44:05;;;;;;;;;;;;;;;;;;5018221;28;20003;-88
2021/03/30 09:46:32;;;;;;;;;;;;;;;;;;5019131;28;19963;-88
2021/03/30 09:49:01;;;;;;;;;;;;;;;;;;5018732;28;19914;-88
2021/03/30 09:51:27;;;;;;;;;;;;;;;;;;5019002;28;20391;-89
2021/03/30 09:53:58;;;;;;;;;;;;;;;;;;5018509;28;19908;-88
2021/03/30 09:56:27;;;;;;;;;;;;;;;;;;5020970;28;19986;-84
2021/03/30 09:58:59;;;;;;;;;;;;;;;;;;5020943;28;19909;-85
2021/03/30 10:01:24;;;;;;;;;;;;;;;;;;5021571;28;19908;-87
2021/03/30 10:03:53;;;;;;;;;;;;;;;;;;5017806;28;19917;-90
2021/03/30 10:06:23;;;;;;;;;;;;;;;;;;5002265;28;19960;-89
2021/03/30 10:08:48;;;;;;;;;;;;;;;;;;5018423;28;19967;-90
2021/03/30 10:11:16;;;;;;;;;;;;;;;;;;5002508;28;19909;-89
2021/03/30 10:13:44;;;;;;;;;;;;;;;;;;5037559;28;19963;-89
2021/03/30 10:16:12;;;;;;;;;;;;;;;;;;5007816;28;19920;-91
2021/03/30 10:18:39;;;;;;;;;;;;;;;;;;5002076;28;19913;-89
2021/03/30 10:21:13;;;;;;;;;;;;;;;;;;5001400;28;19968;-86
2021/03/30 10:23:42;;;;;;;;;;;;;;;;;;5001713;28;19913;-85
2021/03/30 10:26:25;;;;;;;;;;;;;;;;;;5052817;28;20375;-85
2021/03/30 10:28:58;;;;;;;;;;;;;;;;;;5020918;28;19913;-84
2021/03/30 10:31:27;;;;;;;;;;;;;;;;;;5020269;28;19923;-84
2021/03/30 10:33:54;;;;;;;;;;;;;;;;;;5052638;28;20370;-84
2021/03/30 10:36:19;;;;;;;;;;;;;;;;;;5020145;28;20011;-84
2021/03/30 10:39:00;;;;;;;;;;;;;;;;;;5036445;28;19999;-84
2021/03/30 10:41:38;;;;;;;;;;;;;;;;;;5053357;28;20273;-84
2021/03/30 10:44:04;;;;;;;;;;;;;;;;;;5020337;28;19913;-83
2021/03/30 10:46:39;;;;;;;;;;;;;;;;;;5020467;28;19966;-84
2021/03/30 10:49:10;;;;;;;;;;;;;;;;;;5020389;28;20045;-83
2021/03/30 10:51:40;;;;;;;;;;;;;;;;;;5019911;28;20400;-84
2021/03/30 10:54:06;;;;;;;;;;;;;;;;;;5020176;28;19915;-87
2021/03/30 10:56:33;;;;;;;;;;;;;;;;;;5020227;28;19909;-87
2021/03/30 10:58:58;;;;;;;;;;;;;;;;;;5020065;28;19916;-85
2021/03/30 11:01:25;;;;;;;;;;;;;;;;;;5036400;28;19920;-86
2021/03/30 11:03:51;;;;;;;;;;;;;;;;;;5019722;28;20429;-86
2021/03/30 11:06:17;;;;;;;;;;;;;;;;;;5036315;28;19915;-87
2021/03/30 11:08:43;;;;;;;;;;;;;;;;;;5019263;28;19944;-85
2021/03/30 11:11:10;;;;;;;;;;;;;;;;;;5019413;28;19951;-85
2021/03/30 11:13:36;;;;;;;;;;;;;;;;;;5019190;28;19988;-85
2021/03/30 11:16:02;;;;;;;;;;;;;;;;;;5035937;28;20281;-84
2021/03/30 11:18:28;;;;;;;;;;;;;;;;;;5019178;28;19913;-85
2021/03/30 11:20:57;;;;;;;;;;;;;;;;;;5035630;28;19999;-84
2021/03/30 11:23:22;;;;;;;;;;;;;;;;;;5051970;28;20374;-84
2021/03/30 11:25:48;;;;;;;;;;;;;;;;;;5020204;28;20003;-83
2021/03/30 11:28:14;;;;;;;;;;;;;;;;;;5021500;28;19966;-84
2021/03/30 11:30:47;;;;;;;;;;;;;;;;;;5018897;28;19917;-84
2021/03/30 11:38:13;;;;;;;;;;;;;;;;;;5051710;28;19916;-84
2021/03/30 11:40:38;;;;;;;;;;;;;;;;;;5034990;28;19913;-84
2021/03/30 11:43:04;;;;;;;;;;;;;;;;;;5035071;28;19913;-84
2021/03/30 11:45:29;;;;;;;;;;;;;;;;;;5051844;28;19908;-86
2021/03/30 11:47:54;;;;;;;;;;;;;;;;;;5035069;28;19908;-83
2021/03/30 11:50:20;;;;;;;;;;;;;;;;;;5051997;28;19995;-84
2021/03/30 11:52:45;;;;;;;;;;;;;;;;;;5034097;28;19912;-82
2021/03/30 11:55:12;;;;;;;;;;;;;;;;;;5018267;28;20282;-84
2021/03/30 11:57:39;;;;;;;;;;;;;;;;;;5034674;28;19909;-83
2021/03/30 12:00:04;;;;;;;;;;;;;;;;;;5034396;28;19916;-84
2021/03/30 12:02:30;;;;;;;;;;;;;;;;;;5017946;28;19923;-83
2021/03/30 12:04:55;;;;;;;;;;;;;;;;;;5017336;28;19905;-85
2021/03/30 12:07:21;;;;;;;;;;;;;;;;;;5016334;28;19915;-85
2021/03/30 12:09:46;;;;;;;;;;;;;;;;;;5032979;28;19904;-85
2021/03/30 12:12:11;;;;;;;;;;;;;;;;;;5035059;28;19909;-85
2021/03/30 12:14:37;;;;;;;;;;;;;;;;;;5018123;28;19911;-85
2021/03/30 12:17:03;;;;;;;;;;;;;;;;;;5018177;28;20374;-85
2021/03/30 12:19:29;;;;;;;;;;;;;;;;;;5018460;28;19963;-84
2021/03/30 12:21:54;;;;;;;;;;;;;;;;;;5018085;28;20019;-85
2021/03/30 12:24:21;;;;;;;;;;;;;;;;;;5017796;28;19955;-85
2021/03/30 12:26:46;;;;;;;;;;;;;;;;;;5034277;28;19908;-84
2021/03/30 12:29:11;;;;;;;;;;;;;;;;;;5017862;28;19931;-84
2021/03/30 12:31:37;;;;;;;;;;;;;;;;;;5034301;28;19912;-84
2021/03/30 12:34:02;;;;;;;;;;;;;;;;;;5018136;28;20385;-83
2021/03/30 12:36:27;;;;;;;;;;;;;;;;;;5018152;28;19985;-83
2021/03/30 12:38:53;;;;;;;;;;;;;;;;;;5034149;28;19912;-84
2021/03/30 12:41:18;;;;;;;;;;;;;;;;;;5050982;28;19913;-83
2021/03/30 12:43:43;;;;;;;;;;;;;;;;;;5017683;28;20468;-84
2021/03/30 12:46:10;;;;;;;;;;;;;;;;;;5013659;28;19913;-84
2021/03/30 12:48:35;;;;;;;;;;;;;;;;;;4998330;28;19940;-84
2021/03/30 12:51:00;;;;;;;;;;;;;;;;;;5014448;28;20066;-83
2021/03/30 12:53:26;;;;;;;;;;;;;;;;;;5036485;28;19962;-83
2021/03/30 12:55:51;;;;;;;;;;;;;;;;;;5050948;28;20003;-83
2021/03/30 12:58:17;;;;;;;;;;;;;;;;;;5033636;28;19958;-83
2021/03/30 13:00:42;;;;;;;;;;;;;;;;;;5034040;28;19966;-84
2021/03/30 13:03:07;;;;;;;;;;;;;;;;;;5017613;28;20337;-84
2021/03/30 13:05:32;;;;;;;;;;;;;;;;;;5050586;28;20038;-83
2021/03/30 13:07:58;;;;;;;;;;;;;;;;;;5050461;28;19967;-83
2021/03/30 13:10:23;;;;;;;;;;;;;;;;;;5033759;28;20370;-83
2021/03/30 13:12:49;;;;;;;;;;;;;;;;;;5033802;28;19942;-82
2021/03/30 13:15:16;;;;;;;;;;;;;;;;;;5030410;28;19931;-85
2021/03/30 13:17:41;;;;;;;;;;;;;;;;;;5015069;28;19919;-85
2021/03/30 13:20:07;;;;;;;;;;;;;;;;;;5034695;28;19909;-85
2021/03/30 13:22:33;;;;;;;;;;;;;;;;;;5034635;28;19913;-85
2021/03/30 13:25:01;;;;;;;;;;;;;;;;;;5034649;28;19916;-85
2021/03/30 13:27:27;;;;;;;;;;;;;;;;;;5034140;28;19955;-85
2021/03/30 13:29:52;;;;;;;;;;;;;;;;;;5033952;28;19959;-85
2021/03/30 13:32:17;;;;;;;;;;;;;;;;;;5034300;28;19913;-85
2021/03/30 13:34:43;;;;;;;;;;;;;;;;;;5034308;28;19920;-85
2021/03/30 13:37:09;;;;;;;;;;;;;;;;;;5034390;28;19920;-84
2021/03/30 13:39:37;;;;;;;;;;;;;;;;;;5017004;28;19913;-84
2021/03/30 13:42:03;;;;;;;;;;;;;;;;;;5017561;28;19947;-84
2021/03/30 13:44:28;;;;;;;;;;;;;;;;;;5017500;28;20358;-83
2021/03/30 13:46:56;;;;;;;;;;;;;;;;;;5034454;28;19909;-85
2021/03/30 13:49:22;;;;;;;;;;;;;;;;;;5001712;28;19917;-85
2021/03/30 13:51:47;;;;;;;;;;;;;;;;;;5001244;28;19913;-85
2021/03/30 13:54:13;;;;;;;;;;;;;;;;;;5029485;28;20362;-84
2021/03/30 13:56:38;;;;;;;;;;;;;;;;;;5020698;28;20278;-84
2021/03/30 13:59:04;;;;;;;;;;;;;;;;;;5036852;28;19912;-82
2021/03/30 14:01:29;;;;;;;;;;;;;;;;;;5036897;28;19971;-83
2021/03/30 14:03:54;;;;;;;;;;;;;;;;;;5020042;28;20339;-83
2021/03/30 14:06:19;;;;;;;;;;;;;;;;;;5053764;28;19930;-83
2021/03/30 14:08:45;;;;;;;;;;;;;;;;;;5053062;28;19908;-83
2021/03/30 14:11:10;;;;;;;;;;;;;;;;;;5053402;28;19913;-84
2021/03/30 14:13:40;;;;;;;;;;;;;;;;;;5053295;28;19908;-84
2021/03/30 14:16:13;;;;;;;;;;;;;;;;;;5020960;28;19916;-84
2021/03/30 14:21:10;;;;;;;;;;;;;;;;;;5053150;28;19936;-83
2021/03/30 14:23:56;;;;;;;;;;;;;;;;;;5053397;28;19908;-84
2021/03/30 14:26:22;;;;;;;;;;;;;;;;;;5020398;28;20278;-83
2021/03/30 14:28:49;;;;;;;;;;;;;;;;;;5036130;28;20422;-84
2021/03/30 14:31:15;;;;;;;;;;;;;;;;;;5020075;28;19959;-83
2021/03/30 14:33:41;;;;;;;;;;;;;;;;;;5052769;28;19913;-83
2021/03/30 14:36:06;;;;;;;;;;;;;;;;;;5019878;28;19966;-83
2021/03/30 14:38:32;;;;;;;;;;;;;;;;;;5036305;28;19916;-83
2021/03/30 14:40:58;;;;;;;;;;;;;;;;;;5036805;28;19915;-84
2021/03/30 14:43:27;;;;;;;;;;;;;;;;;;5036216;28;19917;-84
2021/03/30 14:53:42;;;;;;;;;;;;;;;;;;5052717;28;19916;-84
2021/03/30 15:02:03;;;;;;;;;;;;;;;;;;5050093;28;19916;-84
2021/03/30 15:04:17;;;;;;;;;;;;;;;;;;5066097;28;20351;-84
2021/03/30 15:06:42;;;;;;;;;;;;;;;;;;5052966;28;19915;-84
2021/03/30 15:09:08;;;;;;;;;;;;;;;;;;5035646;28;19908;-85
2021/03/30 15:11:33;;;;;;;;;;;;;;;;;;5035596;28;20285;-84
2021/03/30 15:13:58;;;;;;;;;;;;;;;;;;5069554;28;20031;-84
2021/03/30 15:16:24;;;;;;;;;;;;;;;;;;5019246;28;19913;-84
2021/03/30 15:18:50;;;;;;;;;;;;;;;;;;5019184;28;19928;-83
2021/03/30 15:21:16;;;;;;;;;;;;;;;;;;5018688;28;19991;-84
2021/03/30 15:23:41;;;;;;;;;;;;;;;;;;5018498;28;20404;-82
2021/03/30 15:26:06;;;;;;;;;;;;;;;;;;5051691;28;19909;-81
2021/03/30 15:28:32;;;;;;;;;;;;;;;;;;5034445;28;19919;-81
2021/03/30 15:30:57;;;;;;;;;;;;;;;;;;5035544;28;19923;-84
2021/03/30 15:33:23;;;;;;;;;;;;;;;;;;5035745;28;19908;-87
2021/03/30 15:35:48;;;;;;;;;;;;;;;;;;5052109;28;19924;-85
2021/03/30 15:38:16;;;;;;;;;;;;;;;;;;5035502;28;19916;-86
2021/03/30 15:40:42;;;;;;;;;;;;;;;;;;5017778;28;19919;-84
2021/03/30 15:43:09;;;;;;;;;;;;;;;;;;5018620;28;19908;-86
2021/03/30 15:48:04;;;;;;;;;;;;;;;;;;5035592;28;19983;-87
2021/03/30 15:50:31;;;;;;;;;;;;;;;;;;5019452;28;19909;-85
2021/03/30 15:52:56;;;;;;;;;;;;;;;;;;5018668;28;19915;-82
2021/03/30 15:55:21;;;;;;;;;;;;;;;;;;5049805;28;19908;-81
2021/03/30 15:57:47;;;;;;;;;;;;;;;;;;5049737;28;20290;-82
2021/03/30 16:00:14;;;;;;;;;;;;;;;;;;5033785;28;19958;-80
2021/03/30 16:02:43;;;;;;;;;;;;;;;;;;5067957;28;19920;-80
2021/03/30 16:05:09;;;;;;;;;;;;;;;;;;5034980;28;20042;-80
2021/03/30 16:07:36;;;;;;;;;;;;;;;;;;5035310;28;20355;-80
2021/03/30 16:10:02;;;;;;;;;;;;;;;;;;5017516;28;19917;-80
2021/03/30 16:12:27;;;;;;;;;;;;;;;;;;5034947;28;19916;-80
2021/03/30 16:14:53;;;;;;;;;;;;;;;;;;5034316;28;19924;-80
2021/03/30 16:17:18;;;;;;;;;;;;;;;;;;5034956;28;19923;-81
2021/03/30 16:19:43;;;;;;;;;;;;;;;;;;5034636;28;19913;-81
2021/03/30 16:22:09;;;;;;;;;;;;;;;;;;5017337;28;19951;-81
2021/03/30 16:24:34;;;;;;;;;;;;;;;;;;5017688;28;19915;-81
2021/03/30 16:26:59;;;;;;;;;;;;;;;;;;5034810;28;19913;-80
2021/03/30 16:29:25;;;;;;;;;;;;;;;;;;5034463;28;20330;-81
2021/03/30 16:31:50;;;;;;;;;;;;;;;;;;5017943;28;19913;-81
2021/03/30 16:34:15;;;;;;;;;;;;;;;;;;5032897;28;19916;-81
2021/03/30 16:36:41;;;;;;;;;;;;;;;;;;5032848;28;19913;-81
2021/03/30 16:39:06;;;;;;;;;;;;;;;;;;5016837;28;19916;-81
2021/03/30 16:41:31;;;;;;;;;;;;;;;;;;5017710;28;20007;-81
2021/03/30 16:43:57;;;;;;;;;;;;;;;;;;5034196;28;19973;-81
2021/03/30 16:46:22;;;;;;;;;;;;;;;;;;5033952;28;19913;-81
2021/03/30 16:48:48;;;;;;;;;;;;;;;;;;5068540;28;19916;-81
2021/03/30 16:51:21;;;;;;;;;;;;;;;;;;5034077;28;19913;-81
2021/03/30 16:53:46;;;;;;;;;;;;;;;;;;5033471;28;19913;-81
2021/03/30 16:56:11;;;;;;;;;;;;;;;;;;5034960;28;19917;-81
2021/03/30 16:58:36;;;;;;;;;;;;;;;;;;5034305;28;19928;-82
2021/03/30 17:01:02;;;;;;;;;;;;;;;;;;5018019;28;19919;-82
2021/03/30 17:03:27;;;;;;;;;;;;;;;;;;5038082;28;19955;-82
2021/03/30 17:05:52;;;;;;;;;;;;;;;;;;5038231;28;19908;-83
2021/03/30 17:08:18;;;;;;;;;;;;;;;;;;5054747;28;19911;-83
2021/03/30 17:10:43;;;;;;;;;;;;;;;;;;5036886;28;19971;-84
2021/03/30 17:13:08;;;;;;;;;;;;;;;;;;5037909;28;20425;-83